createdAt,value
2023-01-07T00:01:49.159Z,98054.47
2023-01-07T00:04:17.758Z,98060.44
2023-01-07T00:06:47.213Z,98054.44
2023-01-07T00:09:17.759Z,98057.81
2023-01-07T00:11:47.052Z,98053.63
2023-01-07T00:14:16.179Z,98055.72
2023-01-07T00:16:44.266Z,98040.78
2023-01-07T00:19:15.399Z,98043.91
2023-01-07T00:21:43.516Z,98042.41
2023-01-07T00:24:12.772Z,98047.16
2023-01-07T00:26:41.712Z,98049.72
2023-01-07T00:29:11.639Z,98047.94
2023-01-07T00:31:40.996Z,98037.34
2023-01-07T00:34:10.234Z,98032.22
2023-01-07T00:36:43.667Z,98024.50
2023-01-07T00:39:15.700Z,98013.97
2023-01-07T00:42:06.282Z,98038.28
2023-01-07T00:44:38.103Z,98040.75
2023-01-07T00:47:06.381Z,98039.34
2023-01-07T00:49:34.557Z,98031.41
2023-01-07T00:52:02.312Z,98037.09
2023-01-07T00:54:30.378Z,98023.25
2023-01-07T00:56:58.214Z,98023.75
2023-01-07T00:59:26.276Z,98025.06
2023-01-07T01:01:55.584Z,98021.97
2023-01-07T01:04:23.729Z,98020.53
2023-01-07T01:06:51.518Z,98021.28
2023-01-07T01:09:20.731Z,98018.94
2023-01-07T01:11:48.565Z,98022.41
2023-01-07T01:14:16.297Z,98019.72
2023-01-07T01:16:44.239Z,98036.03
2023-01-07T01:19:13.474Z,98026.78
2023-01-07T01:21:41.885Z,98022.41
2023-01-07T01:24:09.835Z,98031.94
2023-01-07T01:26:38.007Z,98027.28
2023-01-07T01:29:06.009Z,98016.78
2023-01-07T01:31:34.288Z,98036.44
2023-01-07T01:34:02.058Z,98035.03
2023-01-07T01:36:31.441Z,98021.13
2023-01-07T01:38:59.172Z,98027.41
2023-01-07T01:41:27.343Z,98027.06
2023-01-07T01:43:55.136Z,98028.31
2023-01-07T01:46:32.443Z,98029.53
2023-01-07T01:49:05.848Z,98017.63
2023-01-07T01:51:40.237Z,98016.59
2023-01-07T01:54:13.463Z,98014.69
2023-01-07T01:56:49.272Z,98014.09
2023-01-07T01:59:20.453Z,98010.00
2023-01-07T02:01:48.582Z,98014.31
2023-01-07T02:04:20.676Z,98012.69
2023-01-07T02:06:55.749Z,98012.88
2023-01-07T02:09:23.484Z,97999.69
2023-01-07T02:12:01.857Z,98008.31
2023-01-07T02:14:49.947Z,98006.41
2023-01-07T02:17:31.216Z,97997.47
2023-01-07T02:20:35.417Z,97996.72
2023-01-07T02:23:54.184Z,97986.09
2023-01-07T02:26:48.770Z,97993.00
2023-01-07T02:29:43.159Z,97998.94
2023-01-07T02:32:34.952Z,97991.09
2023-01-07T02:35:11.416Z,97982.69
2023-01-07T02:37:48.121Z,97989.28
2023-01-07T02:40:24.214Z,97986.69
2023-01-07T02:43:04.610Z,97984.34
2023-01-07T02:45:35.163Z,97978.78
2023-01-07T02:48:08.689Z,97969.50
2023-01-07T02:50:36.985Z,97973.59
2023-01-07T02:53:04.866Z,97964.66
2023-01-07T02:55:52.702Z,97969.66
2023-01-07T02:58:35.037Z,97957.56
2023-01-07T03:01:21.905Z,97959.31
2023-01-07T03:04:17.199Z,97960.75
2023-01-07T03:06:57.424Z,97931.53
2023-01-07T03:09:33.474Z,97960.91
2023-01-07T03:12:10.032Z,97953.53
2023-01-07T03:14:42.591Z,97952.19
2023-01-07T03:17:16.395Z,97951.75
2023-01-07T03:19:50.517Z,97957.31
2023-01-07T03:22:21.654Z,97950.38
2023-01-07T03:24:52.692Z,97953.13
2023-01-07T03:27:23.614Z,97948.00
2023-01-07T03:29:54.054Z,97955.88
2023-01-07T03:32:27.400Z,97938.94
2023-01-07T03:34:57.279Z,97939.53
2023-01-07T03:37:27.866Z,97932.09
2023-01-07T03:39:56.143Z,97937.84
2023-01-07T03:42:39.964Z,97936.91
2023-01-07T03:45:13.818Z,97940.84
2023-01-07T03:47:45.447Z,97936.59
2023-01-07T03:50:14.892Z,97939.69
2023-01-07T03:52:42.879Z,97930.91
2023-01-07T03:55:11.265Z,97928.69
2023-01-07T03:57:39.745Z,97926.47
2023-01-07T04:00:10.370Z,97932.78
2023-01-07T04:02:38.449Z,97931.19
2023-01-07T04:05:07.073Z,97924.59
2023-01-07T04:07:36.673Z,97920.94
2023-01-07T04:10:04.920Z,97926.06
2023-01-07T04:12:32.979Z,97906.06
2023-01-07T04:15:00.709Z,97913.53
2023-01-07T04:17:28.730Z,97917.41
2023-01-07T04:19:56.634Z,97907.75
2023-01-07T04:22:24.517Z,97911.31
2023-01-07T04:24:53.780Z,97912.22
2023-01-07T04:27:21.782Z,97908.13
2023-01-07T04:29:49.728Z,97911.19
2023-01-07T04:32:18.015Z,97898.72
2023-01-07T04:34:45.865Z,97909.00
2023-01-07T04:37:14.079Z,97914.84
2023-01-07T04:39:41.909Z,97899.38
2023-01-07T04:42:11.596Z,97892.59
2023-01-07T04:44:39.412Z,97890.53
2023-01-07T04:47:07.728Z,97883.50
2023-01-07T04:49:35.570Z,97888.50
2023-01-07T04:52:04.723Z,97876.91
2023-01-07T04:54:32.550Z,97883.59
2023-01-07T04:57:00.413Z,97828.06
2023-01-07T04:59:29.653Z,97874.50
2023-01-07T05:01:57.706Z,97861.63
2023-01-07T05:04:25.708Z,97869.22
2023-01-07T05:06:54.016Z,97870.19
2023-01-07T05:09:21.984Z,97856.94
2023-01-07T05:11:50.317Z,97868.34
2023-01-07T05:14:18.213Z,97862.63
2023-01-07T05:16:47.839Z,97862.94
2023-01-07T05:19:15.664Z,97844.78
2023-01-07T05:21:44.032Z,97856.19
2023-01-07T05:24:11.990Z,97841.75
2023-01-07T05:26:39.867Z,97834.31
2023-01-07T05:29:07.696Z,97849.38
2023-01-07T05:31:35.993Z,97841.34
2023-01-07T05:34:05.193Z,97844.47
2023-01-07T05:36:33.039Z,97828.66
2023-01-07T05:39:00.872Z,97835.50
2023-01-07T05:41:29.234Z,97836.19
2023-01-07T05:43:57.090Z,97838.63
2023-01-07T05:46:25.406Z,97827.03
2023-01-07T05:48:54.189Z,97831.00
2023-01-07T05:51:23.905Z,97832.09
2023-01-07T05:53:51.776Z,97838.19
2023-01-07T05:56:20.081Z,97834.00
2023-01-07T05:58:47.973Z,97821.47
2023-01-07T06:01:16.432Z,97839.66
2023-01-07T06:03:44.361Z,97826.19
2023-01-07T06:06:12.725Z,97834.34
2023-01-07T06:08:41.919Z,97824.06
2023-01-07T06:11:10.304Z,97812.22
2023-01-07T06:13:38.162Z,97823.69
2023-01-07T06:16:08.548Z,97817.84
2023-01-07T06:18:37.273Z,97818.28
2023-01-07T06:21:05.858Z,97827.72
2023-01-07T06:23:33.955Z,97827.06
2023-01-07T06:26:03.644Z,97821.84
2023-01-07T06:28:31.538Z,97821.13
2023-01-07T06:30:59.836Z,97825.22
2023-01-07T06:33:27.745Z,97832.19
2023-01-07T06:35:55.986Z,97828.63
2023-01-07T06:38:23.818Z,97818.03
2023-01-07T06:40:52.055Z,97817.91
2023-01-07T06:43:21.775Z,97800.19
2023-01-07T06:45:49.843Z,97801.31
2023-01-07T06:48:18.313Z,97799.78
2023-01-07T06:50:46.849Z,97802.03
2023-01-07T06:53:15.180Z,97794.56
2023-01-07T06:55:49.047Z,97796.63
2023-01-07T06:58:17.555Z,97773.88
2023-01-07T07:00:46.783Z,97788.84
2023-01-07T07:03:15.139Z,97787.69
2023-01-07T07:05:43.018Z,97793.03
2023-01-07T07:08:11.816Z,97793.44
2023-01-07T07:10:39.682Z,97790.88
2023-01-07T07:13:08.786Z,97784.91
2023-01-07T07:15:36.778Z,97778.22
2023-01-07T07:18:07.028Z,97786.88
2023-01-07T07:20:35.018Z,97790.56
2023-01-07T07:23:03.717Z,97781.16
2023-01-07T07:25:31.580Z,97784.91
2023-01-07T07:27:59.797Z,97773.78
2023-01-07T07:30:47.674Z,97774.81
2023-01-07T07:33:19.771Z,97775.75
2023-01-07T07:35:48.336Z,97775.41
2023-01-07T07:38:18.309Z,97767.63
2023-01-07T07:40:46.238Z,97773.78
2023-01-07T07:43:14.923Z,97780.66
2023-01-07T07:45:43.214Z,97774.72
2023-01-07T07:48:13.612Z,97767.50
2023-01-07T07:50:42.985Z,97769.34
2023-01-07T07:53:12.096Z,97774.94
2023-01-07T07:55:40.694Z,97771.91
2023-01-07T07:58:08.942Z,97769.84
2023-01-07T08:00:36.894Z,97767.84
2023-01-07T08:03:05.095Z,97757.91
2023-01-07T08:05:33.266Z,97781.69
2023-01-07T08:08:03.237Z,97768.72
2023-01-07T08:10:31.649Z,97772.41
2023-01-07T08:13:00.103Z,97764.53
2023-01-07T08:15:28.430Z,97770.53
2023-01-07T08:18:00.459Z,97748.09
2023-01-07T08:20:29.176Z,97761.34
2023-01-07T08:23:00.323Z,97772.63
2023-01-07T08:25:30.966Z,97767.41
2023-01-07T08:27:59.877Z,97750.72
2023-01-07T08:30:28.218Z,97750.44
2023-01-07T08:32:56.216Z,97738.69
2023-01-07T08:35:25.155Z,97752.47
2023-01-07T08:37:52.957Z,97729.97
2023-01-07T08:40:20.866Z,97739.53
2023-01-07T08:42:50.641Z,97736.84
2023-01-07T08:45:18.704Z,97738.16
2023-01-07T08:47:49.063Z,97712.41
2023-01-07T08:50:17.637Z,97723.53
2023-01-07T08:52:47.737Z,97733.47
2023-01-07T08:55:15.639Z,97732.72
2023-01-07T08:57:43.946Z,97734.38
2023-01-07T09:00:15.885Z,97727.78
2023-01-07T09:02:44.696Z,97707.34
2023-01-07T09:05:13.215Z,97737.19
2023-01-07T09:07:41.503Z,97741.56
2023-01-07T09:10:10.866Z,97734.16
2023-01-07T09:12:39.328Z,97713.25
2023-01-07T09:15:08.656Z,97712.19
2023-01-07T09:17:58.468Z,97724.81
2023-01-07T09:20:26.763Z,97721.09
2023-01-07T09:22:54.992Z,97720.06
2023-01-07T09:25:23.727Z,97708.56
2023-01-07T09:27:51.955Z,97709.97
2023-01-07T09:30:20.078Z,97707.25
2023-01-07T09:32:49.970Z,97715.75
2023-01-07T09:35:18.104Z,97704.50
2023-01-07T09:37:46.220Z,97717.72
2023-01-07T09:40:24.930Z,97691.44
2023-01-07T09:43:04.105Z,97713.22
2023-01-07T09:45:36.208Z,97705.22
2023-01-07T09:48:15.257Z,97716.94
2023-01-07T09:50:50.126Z,97703.13
2023-01-07T09:53:22.686Z,97709.03
2023-01-07T09:56:11.086Z,97705.94
2023-01-07T09:58:42.918Z,97698.22
2023-01-07T10:01:24.176Z,97695.06
2023-01-07T10:04:03.436Z,97695.66
2023-01-07T10:06:43.907Z,97685.75
2023-01-07T10:09:23.853Z,97682.72
2023-01-07T10:12:03.488Z,97682.47
2023-01-07T10:14:59.622Z,97673.94
2023-01-07T10:17:39.027Z,97672.69
2023-01-07T10:20:18.642Z,97674.53
2023-01-07T10:22:52.519Z,97665.53
2023-01-07T10:25:25.602Z,97668.81
2023-01-07T10:27:56.425Z,97658.81
2023-01-07T10:30:28.102Z,97664.63
2023-01-07T10:33:03.842Z,97662.50
2023-01-07T10:35:36.686Z,97671.34
2023-01-07T10:38:06.765Z,97645.28
2023-01-07T10:40:43.591Z,97648.19
2023-01-07T10:43:27.617Z,97648.06
2023-01-07T10:46:19.461Z,97632.72
2023-01-07T10:49:05.380Z,97640.47
2023-01-07T10:52:04.910Z,97639.06
2023-01-07T10:55:04.581Z,97638.25
2023-01-07T10:57:34.688Z,97629.81
2023-01-07T11:00:05.728Z,97628.63
2023-01-07T11:02:34.186Z,97627.03
2023-01-07T11:05:02.641Z,97625.31
2023-01-07T11:07:43.895Z,97597.97
2023-01-07T11:10:17.615Z,97608.34
2023-01-07T11:12:49.680Z,97593.06
2023-01-07T11:15:24.107Z,97613.38
2023-01-07T11:17:56.650Z,97599.38
2023-01-07T11:20:47.806Z,97595.41
2023-01-07T11:23:29.311Z,97594.19
2023-01-07T11:26:17.944Z,97573.88
2023-01-07T11:28:53.151Z,97601.56
2023-01-07T11:31:23.105Z,97566.81
2023-01-07T11:34:01.559Z,97576.63
2023-01-07T11:36:41.910Z,97571.66
2023-01-07T11:39:22.192Z,97557.19
2023-01-07T11:41:55.666Z,97553.63
2023-01-07T11:44:24.294Z,97552.50
2023-01-07T11:46:53.153Z,97547.22
2023-01-07T11:49:28.059Z,97548.91
2023-01-07T11:51:57.423Z,97539.78
2023-01-07T11:54:29.001Z,97541.97
2023-01-07T11:57:13.531Z,97537.78
2023-01-07T11:59:41.507Z,97533.47
2023-01-07T12:02:26.141Z,97521.19
2023-01-07T12:05:14.349Z,97525.19
2023-01-07T12:07:46.628Z,97516.34
2023-01-07T12:10:29.686Z,97512.88
2023-01-07T12:12:59.492Z,97523.91
2023-01-07T12:15:29.587Z,97510.03
2023-01-07T12:18:15.842Z,97508.63
2023-01-07T12:21:07.747Z,97506.28
2023-01-07T12:23:48.729Z,97510.16
2023-01-07T12:26:23.559Z,97510.75
2023-01-07T12:29:03.666Z,97496.47
2023-01-07T12:31:44.740Z,97498.44
2023-01-07T12:34:23.351Z,97489.06
2023-01-07T12:37:01.974Z,97488.66
2023-01-07T12:39:35.568Z,97487.69
2023-01-07T12:42:11.021Z,97473.75
2023-01-07T12:44:47.496Z,97479.81
2023-01-07T12:47:30.564Z,97436.81
2023-01-07T12:50:05.740Z,97471.50
2023-01-07T12:52:42.525Z,97464.88
2023-01-07T12:55:18.771Z,97461.75
2023-01-07T12:58:00.651Z,97454.78
2023-01-07T13:00:33.468Z,97448.94
2023-01-07T13:03:10.444Z,97453.38
2023-01-07T13:05:43.686Z,97453.81
2023-01-07T13:08:20.051Z,97446.69
2023-01-07T13:10:53.246Z,97446.50
2023-01-07T13:13:27.462Z,97447.13
2023-01-07T13:15:57.272Z,97420.84
2023-01-07T13:18:25.287Z,97437.69
2023-01-07T13:21:04.429Z,97434.63
2023-01-07T13:23:47.618Z,97425.13
2023-01-07T13:26:25.988Z,97423.63
2023-01-07T13:29:16.459Z,97416.88
2023-01-07T13:32:05.478Z,97410.41
2023-01-07T13:34:43.223Z,97409.50
2023-01-07T13:37:25.225Z,97401.03
2023-01-07T13:40:10.402Z,97392.84
2023-01-07T13:42:46.325Z,97388.44
2023-01-07T13:45:21.872Z,97403.47
2023-01-07T13:47:53.202Z,97384.88
2023-01-07T13:50:25.407Z,97385.13
2023-01-07T13:52:59.487Z,97383.69
2023-01-07T13:55:32.950Z,97378.94
2023-01-07T13:58:02.816Z,97384.00
2023-01-07T14:00:43.214Z,97368.16
2023-01-07T14:03:41.442Z,97369.22
2023-01-07T14:06:44.055Z,97373.56
2023-01-07T14:09:26.780Z,97367.81
2023-01-07T14:12:36.898Z,97359.41
2023-01-07T14:15:39.580Z,97354.00
2023-01-07T14:18:27.744Z,97364.53
2023-01-07T14:21:08.527Z,97352.03
2023-01-07T14:23:44.119Z,97347.59
2023-01-07T14:26:24.569Z,97358.13
2023-01-07T14:29:10.186Z,97365.03
2023-01-07T14:31:38.630Z,97358.09
2023-01-07T14:34:18.832Z,97351.31
2023-01-07T14:37:30.175Z,97354.78
2023-01-07T14:39:58.230Z,97361.94
2023-01-07T14:42:43.711Z,97350.53
2023-01-07T14:45:49.893Z,97343.22
2023-01-07T14:48:35.393Z,97348.59
2023-01-07T14:51:33.728Z,97343.22
2023-01-07T14:54:43.239Z,97348.38
2023-01-07T14:57:29.824Z,97339.78
2023-01-07T15:00:31.141Z,97342.22
2023-01-07T15:03:34.133Z,97344.94
2023-01-07T15:06:24.959Z,97346.50
2023-01-07T15:09:20.162Z,97348.75
2023-01-07T15:12:08.464Z,97347.47
2023-01-07T15:15:01.616Z,97342.97
2023-01-07T15:17:29.921Z,97341.59
2023-01-07T15:19:59.672Z,97348.16
2023-01-07T15:22:58.134Z,97348.63
2023-01-07T15:25:44.440Z,97354.06
2023-01-07T15:28:20.169Z,97351.53
2023-01-07T15:30:58.851Z,97359.66
2023-01-07T15:33:48.605Z,97353.19
2023-01-07T15:36:17.744Z,97353.78
2023-01-07T15:38:50.667Z,97360.22
2023-01-07T15:41:27.577Z,97365.38
2023-01-07T15:43:56.126Z,97345.88
2023-01-07T15:46:28.605Z,97357.28
2023-01-07T15:49:24.273Z,97357.06
2023-01-07T15:51:56.516Z,97352.13
2023-01-07T15:54:33.455Z,97343.41
2023-01-07T15:57:14.868Z,97339.41
2023-01-07T15:59:45.807Z,97346.56
2023-01-07T16:02:22.365Z,97346.75
2023-01-07T16:04:52.717Z,97341.97
2023-01-07T16:07:25.656Z,97335.66
2023-01-07T16:09:54.225Z,97346.03
2023-01-07T16:12:30.671Z,97347.38
2023-01-07T16:14:59.222Z,97344.22
2023-01-07T16:17:28.445Z,97354.22
2023-01-07T16:20:21.297Z,97344.53
2023-01-07T16:22:49.795Z,97348.50
2023-01-07T16:25:29.595Z,97345.69
2023-01-07T16:27:59.103Z,97331.09
2023-01-07T16:30:27.729Z,97340.38
2023-01-07T16:32:56.353Z,97319.88
2023-01-07T16:35:32.161Z,97343.34
2023-01-07T16:38:01.682Z,97340.81
2023-01-07T16:40:36.001Z,97337.91
2023-01-07T16:43:06.309Z,97329.56
2023-01-07T16:45:36.664Z,97351.69
2023-01-07T16:48:19.888Z,97359.25
2023-01-07T16:50:50.402Z,97353.75
2023-01-07T16:53:28.130Z,97348.47
2023-01-07T16:56:12.777Z,97355.16
2023-01-07T16:58:48.343Z,97344.09
2023-01-07T17:01:20.824Z,97317.34
2023-01-07T17:03:53.725Z,97335.50
2023-01-07T17:06:26.306Z,97329.81
2023-01-07T17:08:56.625Z,97329.00
2023-01-07T17:11:29.996Z,97321.25
2023-01-07T17:13:59.675Z,97310.94
2023-01-07T17:16:33.008Z,97316.72
2023-01-07T17:19:24.447Z,97298.56
2023-01-07T17:21:53.719Z,97299.44
2023-01-07T17:24:24.364Z,97322.47
2023-01-07T17:26:53.223Z,97301.97
2023-01-07T17:29:26.239Z,97312.13
2023-01-07T17:31:54.747Z,97294.13
2023-01-07T17:34:25.219Z,97298.66
2023-01-07T17:36:53.863Z,97297.63
2023-01-07T17:39:22.106Z,97287.72
2023-01-07T17:42:08.315Z,97296.72
2023-01-07T17:44:37.781Z,97295.28
2023-01-07T17:47:08.303Z,97307.09
2023-01-07T17:49:36.621Z,97305.25
2023-01-07T17:52:05.233Z,97287.06
2023-01-07T17:54:33.342Z,97279.56
2023-01-07T17:57:01.829Z,97282.78
2023-01-07T17:59:30.419Z,97285.16
2023-01-07T18:02:01.184Z,97284.69
2023-01-07T18:04:29.421Z,97283.88
2023-01-07T18:06:57.673Z,97278.09
2023-01-07T18:09:25.814Z,97275.19
2023-01-07T18:12:12.064Z,97263.00
2023-01-07T18:14:40.170Z,97283.91
2023-01-07T18:17:10.230Z,97285.31
2023-01-07T18:19:38.418Z,97282.63
2023-01-07T18:22:06.844Z,97287.91
2023-01-07T18:24:34.936Z,97271.88
2023-01-07T18:27:03.101Z,97288.38
2023-01-07T18:29:31.240Z,97271.63
2023-01-07T18:32:00.012Z,97290.47
2023-01-07T18:34:29.416Z,97290.78
2023-01-07T18:36:58.197Z,97284.03
2023-01-07T18:39:26.271Z,97263.50
2023-01-07T18:41:54.429Z,97297.28
2023-01-07T18:44:24.265Z,97276.91
2023-01-07T18:46:53.043Z,97284.44
2023-01-07T18:49:21.195Z,97279.31
2023-01-07T18:51:51.351Z,97281.41
2023-01-07T18:54:19.935Z,97274.47
2023-01-07T18:56:48.431Z,97273.44
2023-01-07T18:59:16.592Z,97283.31
2023-01-07T19:01:44.746Z,97271.25
2023-01-07T19:04:13.067Z,97266.91
2023-01-07T19:06:41.720Z,97272.84
2023-01-07T19:09:11.315Z,97268.09
2023-01-07T19:11:39.484Z,97258.41
2023-01-07T19:14:07.501Z,97252.81
2023-01-07T19:16:38.343Z,97253.31
2023-01-07T19:19:07.123Z,97263.22
2023-01-07T19:21:36.179Z,97239.09
2023-01-07T19:24:04.638Z,97255.56
2023-01-07T19:26:35.694Z,97265.00
2023-01-07T19:29:04.571Z,97263.59
2023-01-07T19:31:33.306Z,97263.63
2023-01-07T19:34:02.896Z,97261.16
2023-01-07T19:36:31.446Z,97239.31
2023-01-07T19:38:59.587Z,97260.84
2023-01-07T19:41:28.773Z,97256.53
2023-01-07T19:44:01.444Z,97259.50
2023-01-07T19:46:30.071Z,97264.28
2023-01-07T19:48:58.163Z,97259.88
2023-01-07T19:51:27.620Z,97255.38
2023-01-07T19:53:55.699Z,97259.06
2023-01-07T19:56:23.917Z,97261.09
2023-01-07T19:58:54.069Z,97249.28
2023-01-07T20:01:26.821Z,97242.56
2023-01-07T20:03:56.235Z,97254.69
2023-01-07T20:06:27.431Z,97240.19
2023-01-07T20:08:57.023Z,97233.16
2023-01-07T20:11:25.536Z,97229.16
2023-01-07T20:13:54.123Z,97227.59
2023-01-07T20:16:25.343Z,97239.88
2023-01-07T20:18:55.608Z,97226.75
2023-01-07T20:21:26.504Z,97229.47
2023-01-07T20:23:55.387Z,97226.84
2023-01-07T20:26:25.442Z,97224.34
2023-01-07T20:28:55.303Z,97223.00
2023-01-07T20:31:26.973Z,97212.34
2023-01-07T20:33:56.532Z,97198.66
2023-01-07T20:36:26.767Z,97209.91
2023-01-07T20:38:55.739Z,97201.22
2023-01-07T20:41:25.946Z,97206.03
2023-01-07T20:43:56.253Z,97206.66
2023-01-07T20:46:26.749Z,97191.88
2023-01-07T20:48:55.637Z,97199.91
2023-01-07T20:51:24.071Z,97203.34
2023-01-07T20:53:52.752Z,97197.69
2023-01-07T20:56:23.380Z,97204.81
2023-01-07T20:58:52.793Z,97207.91
2023-01-07T21:01:22.736Z,97207.44
2023-01-07T21:03:52.755Z,97218.44
2023-01-07T21:06:21.704Z,97196.72
2023-01-07T21:08:51.641Z,97187.13
2023-01-07T21:11:21.422Z,97196.50
2023-01-07T21:13:51.137Z,97189.06
2023-01-07T21:16:19.293Z,97195.38
2023-01-07T21:18:47.909Z,97197.97
2023-01-07T21:21:19.261Z,97186.94
2023-01-07T21:23:48.439Z,97187.16
2023-01-07T21:26:16.938Z,97185.28
2023-01-07T21:28:45.733Z,97190.69
2023-01-07T21:31:16.745Z,97180.81
2023-01-07T21:33:45.501Z,97185.38
2023-01-07T21:36:15.364Z,97170.31
2023-01-07T21:38:46.097Z,97199.25
2023-01-07T21:41:16.141Z,97186.94
2023-01-07T21:43:45.841Z,97172.16
2023-01-07T21:46:14.365Z,97188.09
2023-01-07T21:48:46.891Z,97160.44
2023-01-07T21:51:19.007Z,97180.94
2023-01-07T21:53:51.622Z,97186.63
2023-01-07T21:56:21.052Z,97172.75
2023-01-07T21:58:50.410Z,97145.41
2023-01-07T22:01:19.992Z,97169.53
2023-01-07T22:03:50.208Z,97176.00
2023-01-07T22:06:20.786Z,97174.13
2023-01-07T22:08:51.205Z,97157.53
2023-01-07T22:11:19.623Z,97180.28
2023-01-07T22:13:53.103Z,97166.13
2023-01-07T22:16:21.560Z,97178.78
2023-01-07T22:18:50.565Z,97184.25
2023-01-07T22:21:19.110Z,97174.75
2023-01-07T22:23:49.880Z,97178.50
2023-01-07T22:26:19.752Z,97184.66
2023-01-07T22:28:53.069Z,97189.94
2023-01-07T22:31:22.955Z,97177.00
2023-01-07T22:33:51.473Z,97173.31
2023-01-07T22:36:24.310Z,97175.25
2023-01-07T22:38:57.666Z,97177.63
2023-01-07T22:41:26.018Z,97158.63
2023-01-07T22:43:54.672Z,97184.66
2023-01-07T22:46:25.665Z,97181.66
2023-01-07T22:48:54.971Z,97186.06
2023-01-07T22:51:26.024Z,97193.00
2023-01-07T22:53:58.495Z,97201.63
2023-01-07T22:56:26.731Z,97173.81
2023-01-07T22:58:55.193Z,97183.41
2023-01-07T23:01:23.445Z,97183.94
2023-01-07T23:03:51.577Z,97191.81
2023-01-07T23:06:19.796Z,97180.22
2023-01-07T23:08:48.348Z,97173.75
2023-01-07T23:11:31.587Z,97169.72
2023-01-07T23:14:00.164Z,97144.34
2023-01-07T23:16:28.297Z,97168.34
2023-01-07T23:18:56.279Z,97166.50
2023-01-07T23:21:24.196Z,97151.25
